WEATHER DATA

TODAY
Time Temp. Dewp. Hum. Wind dir Wind speed Wind gust Bar. 1h Prec. 24h Prec.
00:09 2.7 1.5 92 252 1.1 3.6 1020.5 0.0000 0.0000
00:19 2.7 1.5 92 258 1.1 3.1 1020.4 0.0000 0.0000
00:29 2.7 1.5 92 247 0.8 2.8 1020.3 0.0000 0.0000
00:39 2.7 1.5 92 254 0.8 2.8 1020.3 0.0000 0.0000
00:49 2.7 1.5 92 261 1.1 4.4 1020.1 0.0000 0.0000
00:59 2.7 1.5 92 262 1.7 3.6 1019.9 0.0000 0.0000
01:09 2.7 1.5 92 270 0.8 2.5 1019.7 0.0000 0.0000
01:20 2.8 1.6 92 252 1.1 3.3 1019.4 0.0000 0.0000
01:29 2.8 1.6 92 270 0.8 2.8 1019.2 0.0000 0.0000
01:39 2.8 1.6 92 270 0.8 3.1 1019 0.0000 0.0000
01:49 2.8 1.6 92 242 1.1 3.6 1019 0.0000 0.0000
02:00 2.8 1.6 92 260 0.8 3.1 1018.9 0.0000 0.0000
02:09 2.9 1.7 92 270 1.1 3.3 1018.8 0.0000 0.0000
02:19 2.9 1.7 92 264 1.7 3.3 1018.7 0.0000 0.0000
02:30 3 1.8 92 253 1.1 3.6 1018.6 0.0000 0.0000
02:40 3 1.8 92 245 1.7 4.7 1018.2 0.0000 0.0000
02:50 3.1 1.9 92 263 1.7 4.4 1017.8 0.0000 0.0000
03:00 3.1 1.9 92 254 1.1 4.2 1017.6 0.0000 0.0000
03:10 3.1 1.9 92 261 1.1 5 1017.5 0.0000 0.0000
03:20 3.1 1.9 92 270 1.1 3.3 1017.4 0.0000 0.0000
03:30 3.1 1.9 92 250 2.2 5.3 1017.2 0.0000 0.0000
03:40 3.1 1.9 92 250 1.1 5.6 1017 0.0000 0.0000
03:50 3.1 1.9 92 259 1.7 5 1016.9 0.0000 0.0000
04:00 3.2 2 92 258 1.1 3.6 1016.7 0.0000 0.0000
04:10 3.1 1.9 92 255 1.1 4.7 1016.6 0.0000 0.0000
04:20 3.2 2 92 242 1.7 4.2 1016.5 0.0000 0.0000
04:30 3.2 2 92 257 1.7 4.7 1016.4 0.0000 0.0000
04:40 3.3 2.1 92 251 1.7 4.2 1016.4 0.0000 0.0000
04:51 3.4 2.2 92 252 1.9 5.8 1015.9 0.0000 0.0000
05:00 3.5 2.3 92 252 1.7 4.4 1015.9 0.0000 0.0000
05:10 3.5 2.3 92 257 1.7 5 1016.1 0.0000 0.0000
05:21 3.6 2.4 92 265 1.7 5.8 1015.8 0.0000 0.0000
05:31 3.6 2.4 92 258 1.7 4.2 1015.7 0.0000 0.0000
05:40 3.6 2.4 92 253 1.1 4.4 1015.4 0.0000 0.0000
05:50 3.6 2.4 92 257 1.9 5.6 1015.2 0.0000 0.0000
06:01 3.6 2.4 92 270 1.7 4.2 1015.3 0.0000 0.0000
06:11 3.6 2.4 92 270 0.8 4.4 1015.1 0.0000 0.0000
06:21 3.5 2.3 92 270 1.7 4.4 1014.8 0.0000 0.0000
06:31 3.5 2.3 92 258 2.2 6.9 1014.6 0.0000 0.0000
06:41 3.4 2.2 92 254 1.1 4.2 1014.5 0.0000 0.0000
06:51 3.4 2.2 92 270 1.7 4.7 1014.3 0.0000 0.0000
07:01 3.4 2.2 92 265 2.2 5.8 1014.2 0.0000 0.0000
07:11 3.4 2.2 92 252 1.7 4.7 1014.1 0.0000 0.0000
07:21 3.4 2.2 92 261 1.9 4.7 1014 0.0000 0.0000
07:31 3.4 2.2 92 245 1.1 5 1014.1 0.0000 0.0000
07:42 3.4 2.2 92 240 1.1 4.2 1014 0.0000 0.0000
07:51 3.3 2.1 92 250 1.1 4.2 1013.8 0.0000 0.0000
08:01 3.3 2.1 92 251 1.1 4.2 1013.7 0.0000 0.0000
08:11 3.3 2.1 92 252 2.2 4.7 1013.8 0.0000 0.0000
08:22 3.3 2.1 92 238 1.1 3.6 1013.6 0.0000 0.0000
08:31 3.3 2.1 92 238 1.1 5.3 1013.5 0.0000 0.0000
08:41 3.3 2.1 92 250 1.7 3.3 1013.4 0.0000 0.0000
08:52 3.2 2 92 245 2.2 7.2 1013.4 0.0000 0.0000
09:02 3.1 1.9 92 249 1.7 5 1013.4 0.0000 0.0000
09:12 3.1 1.9 92 264 1.7 5 1013.1 0.0000 0.0000
09:22 3 1.8 92 245 1.7 5.3 1013 0.0000 0.0000
09:32 3 1.8 92 258 1.1 4.4 1012.9 0.0000 0.0000
09:42 3 1.8 92 243 1.1 4.4 1012.8 0.0000 0.0000
09:52 3 1.8 92 249 1.9 5.6 1012.7 0.0000 0.0000
10:02 3 1.8 92 249 1.7 4.4 1012.6 0.0000 0.0000
10:12 3.1 1.9 92 248 1.9 4.2 1012.6 0.0000 0.0000
10:22 3.1 1.9 92 270 1.7 4.2 1012.4 0.0000 0.0000
10:32 3.2 2 92 255 1.7 4.4 1012.3 0.0000 0.0000
10:42 3.2 2 92 270 1.1 3.3 1012.4 0.0000 0.0000
10:52 3.3 2.1 92 276 2.2 5.6 1012.3 0.0000 0.0000
11:02 3.3 2.1 92 257 1.9 5 1012.2 0.0000 0.0000
11:13 3.4 2.2 92 259 1.9 7.2 1012.2 0.0000 0.0000
11:22 3.4 2.2 92 252 1.9 6.9 1012.1 0.0000 0.0000
11:32 3.5 2.3 92 270 1.1 3.1 1012 0.0000 0.0000
11:42 3.5 2.3 92 255 1.9 5.3 1012 0.0000 0.0000
11:52 3.6 2.4 92 261 1.7 5.8 1011.7 0.0000 0.0000
12:02 3.7 2.5 92 245 1.7 3.3 1011.6 0.0000 0.0000
12:12 3.8 2.6 92 259 1.1 4.4 1011.6 0.0000 0.0000
12:22 3.9 2.7 92 252 2.2 6.4 1011.5 0.0000 0.0000
12:32 3.9 2.7 92 253 1.7 4.7 1011.4 0.0000 0.0000
12:42 4 2.8 92 252 1.9 5.8 1011.3 0.0000 0.0000
12:53 4 2.8 92 254 1.7 4.4 1011.2 0.0000 0.0000
13:02 4.1 2.9 92 270 1.1 3.1 1011 0.0000 0.0000
13:12 4.2 3 92 263 1.7 3.6 1010.9 0.0000 0.0000
13:22 4.3 3.1 92 259 1.7 3.6 1010.9 0.0000 0.0000
13:33 4.5 3.5 93 254 1.7 4.4 1010.6 0.0000 0.0000
13:42 4.6 3.6 93 252 1.7 4.7 1010.6 0.0000 0.0000
13:52 4.8 3.8 93 270 1.1 3.3 1010.4 0.0000 0.0000
14:03 4.9 3.9 93 277 1.7 4.4 1010.3 0.0000 0.0000
14:13 5.1 4.1 93 258 1.7 6.1 1010.3 0.0000 0.0000
14:23 5.1 4.1 93 260 1.9 4.4 1010.1 0.0000 0.0000
14:33 5.2 4.2 93 270 0.8 3.6 1009.9 0.0000 0.0000
14:43 5.3 4.3 93 248 1.7 5.8 1009.8 0.0000 0.0000
14:53 5.4 4.4 93 263 1.7 4.4 1009.9 0.0000 0.0000
15:03 5.5 4.5 93 249 1.7 4.2 1009.9 0.0000 0.0000
15:13 5.6 4.6 93 270 1.7 4.2 1009.8 0.0000 0.0000
15:23 5.7 4.7 93 270 1.1 3.1 1009.7 0.0000 0.0000
15:33 5.8 4.8 93 257 1.7 3.6 1009.6 0.0000 0.0000
15:43 5.9 4.9 93 263 1.7 5.3 1009.5 0.0000 0.0000
15:53 5.9 4.9 93 259 1.1 5.3 1009.6 0.0000 0.0000
16:03 5.9 4.9 93 248 0.8 3.1 1009.6 0.0000 0.0000
16:13 5.9 4.9 93 283 1.1 3.1 1009.7 0.0000 0.0000
16:24 5.9 4.7 92 260 1.1 3.1 1009.7 0.0000 0.0000
16:33 5.9 4.7 92 270 0.8 2.2 1009.8 0.0000 0.0000
16:43 5.8 4.6 92 270 1.1 3.3 1009.9 0.0000 0.0000
16:54 5.8 4.6 92 270 1.1 4.2 1010 0.0000 0.0000
17:04 5.8 4.6 92 265 1.7 3.6 1009.9 0.0000 0.0000
17:13 5.7 4.5 92 241 0.8 3.1 1009.8 0.0000 0.0000
17:23 5.7 4.5 92 261 1.1 3.3 1009.7 0.0000 0.0000
17:34 5.8 4.6 92 270 1.7 4.4 1009.7 0.0000 0.0000
17:44 5.8 4.6 92 270 1.1 3.1 1009.7 0.0000 0.0000
17:54 5.6 4.4 92 259 1.1 3.1 1009.6 0.0000 0.0000
18:04 5.6 4.4 92 270 1.1 3.1 1009.6 0.0000 0.0000
18:14 5.5 4.3 92 278 1.1 4.4 1009.6 0.0000 0.0000
18:24 5.5 4.3 92 257 1.7 5.6 1009.7 0.0000 0.0000
18:34 5.4 4.2 92 319 2.5 5.6 1009.9 0.0000 0.0000
18:44 5.1 3.9 92 318 2.2 4.2 1009.9 0.0000 0.0000
18:54 4.9 3.7 92 305 1.7 5.8 1009.8 0.0000 0.0000
19:04 4.7 3.5 92 281 1.1 3.3 1009.8 0.0000 0.0000
19:15 4.7 3.5 92 270 1.1 4.4 1009.7 0.0000 0.0000

DAY STATISTIC

2022-01-27
TEMPERATURE
AVERAGE
3.9
HIGH
5.9
15:43
LOW
2.7
00:09
PRESSURE
AVERAGE
1013.5
HIGH
1020.5
00:09
LOW
1009.5
15:43
DEWPOINT
AVERAGE
2.8
HIGH
4.9
15:43
LOW
1.5
00:09
HUMIDITY
AVERAGE
92
HIGH
93
13:33
LOW
92
00:09
WIND SPEED
AVERAGE
1.5
HIGH
2.5
18:34
WIND GUST
AVERAGE
4.3
HIGH
7.2
08:52
WIND DIRECTION
PREVAILING
W
86.1%
N
0.0
NE
0.0
E
0.0
SE
0.0
S
0.0
SW
11.3
W
86.1
NW
2.6
PRECIPITATION
RAIN HOUR
0.0
RAIN DAY
0.0
TEMPERATURE (°C)
LOW
2.7
HIGH
5.9
AVERAGE
3.9
PRESSURE (hpa)
LOW
1009.5
HIGH
1020.5
AVERAGE
1013.5
DEVICE